sensor_id;sensor_type;location;lat;lon;timestamp;P1;durP1;ratioP1;P2;durP2;ratioP2
18076;SDS011;9165;45.714;11.362;2024-03-07T00:02:11;656.40;;;146.97;;
18076;SDS011;9165;45.714;11.362;2024-03-07T00:04:38;650.53;;;147.80;;
18076;SDS011;9165;45.714;11.362;2024-03-07T00:07:04;652.70;;;154.03;;
18076;SDS011;9165;45.714;11.362;2024-03-07T00:09:32;654.20;;;158.87;;
18076;SDS011;9165;45.714;11.362;2024-03-07T00:11:59;674.57;;;164.57;;
18076;SDS011;9165;45.714;11.362;2024-03-07T00:14:26;668.23;;;160.20;;
18076;SDS011;9165;45.714;11.362;2024-03-07T00:16:53;654.37;;;148.53;;
18076;SDS011;9165;45.714;11.362;2024-03-07T00:19:20;653.07;;;155.23;;
18076;SDS011;9165;45.714;11.362;2024-03-07T00:21:50;642.37;;;150.03;;
18076;SDS011;9165;45.714;11.362;2024-03-07T00:24:17;637.27;;;137.97;;
18076;SDS011;9165;45.714;11.362;2024-03-07T00:26:44;634.20;;;132.80;;
18076;SDS011;9165;45.714;11.362;2024-03-07T00:29:10;632.10;;;141.40;;
18076;SDS011;9165;45.714;11.362;2024-03-07T00:31:37;629.13;;;139.13;;
18076;SDS011;9165;45.714;11.362;2024-03-07T00:34:03;415.17;;;87.90;;
18076;SDS011;9165;45.714;11.362;2024-03-07T00:36:31;432.17;;;106.57;;
18076;SDS011;9165;45.714;11.362;2024-03-07T00:38:58;628.83;;;137.70;;
18076;SDS011;9165;45.714;11.362;2024-03-07T00:41:25;617.27;;;127.43;;
18076;SDS011;9165;45.714;11.362;2024-03-07T00:43:51;620.17;;;130.03;;
18076;SDS011;9165;45.714;11.362;2024-03-07T00:46:18;618.58;;;135.95;;
18076;SDS011;9165;45.714;11.362;2024-03-07T00:48:44;616.55;;;136.00;;
18076;SDS011;9165;45.714;11.362;2024-03-07T00:51:11;614.70;;;133.15;;
18076;SDS011;9165;45.714;11.362;2024-03-07T00:53:39;229.10;;;44.43;;
18076;SDS011;9165;45.714;11.362;2024-03-07T00:56:06;600.97;;;124.10;;
18076;SDS011;9165;45.714;11.362;2024-03-07T00:58:32;602.20;;;130.13;;
18076;SDS011;9165;45.714;11.362;2024-03-07T01:00:59;26.93;;;6.20;;
18076;SDS011;9165;45.714;11.362;2024-03-07T01:03:26;1.70;;;1.60;;
18076;SDS011;9165;45.714;11.362;2024-03-07T01:05:53;1.43;;;1.27;;
18076;SDS011;9165;45.714;11.362;2024-03-07T01:08:19;1.70;;;1.37;;
18076;SDS011;9165;45.714;11.362;2024-03-07T01:10:47;3.77;;;1.50;;
18076;SDS011;9165;45.714;11.362;2024-03-07T01:13:14;1.80;;;1.50;;
18076;SDS011;9165;45.714;11.362;2024-03-07T01:15:44;1.37;;;1.17;;
18076;SDS011;9165;45.714;11.362;2024-03-07T01:18:10;2.23;;;1.40;;
18076;SDS011;9165;45.714;11.362;2024-03-07T01:20:38;3.73;;;1.17;;
18076;SDS011;9165;45.714;11.362;2024-03-07T01:23:04;2.17;;;1.37;;
18076;SDS011;9165;45.714;11.362;2024-03-07T01:25:32;3.73;;;1.20;;
18076;SDS011;9165;45.714;11.362;2024-03-07T01:28:01;1.83;;;1.33;;
18076;SDS011;9165;45.714;11.362;2024-03-07T01:30:29;1.53;;;1.20;;
18076;SDS011;9165;45.714;11.362;2024-03-07T01:32:54;2.33;;;1.20;;
18076;SDS011;9165;45.714;11.362;2024-03-07T01:35:21;2.23;;;1.30;;
18076;SDS011;9165;45.714;11.362;2024-03-07T01:37:47;1.50;;;1.40;;
18076;SDS011;9165;45.714;11.362;2024-03-07T01:40:14;1.63;;;1.30;;
18076;SDS011;9165;45.714;11.362;2024-03-07T01:42:40;4.30;;;2.07;;
18076;SDS011;9165;45.714;11.362;2024-03-07T01:45:08;3.37;;;1.93;;
18076;SDS011;9165;45.714;11.362;2024-03-07T01:47:35;3.20;;;1.97;;
18076;SDS011;9165;45.714;11.362;2024-03-07T01:50:03;9.30;;;2.00;;
18076;SDS011;9165;45.714;11.362;2024-03-07T01:52:29;8.30;;;2.37;;
18076;SDS011;9165;45.714;11.362;2024-03-07T01:54:56;2.63;;;2.20;;
18076;SDS011;9165;45.714;11.362;2024-03-07T01:57:23;6.30;;;2.10;;
18076;SDS011;9165;45.714;11.362;2024-03-07T01:59:49;9.70;;;2.30;;
18076;SDS011;9165;45.714;11.362;2024-03-07T02:02:18;3.47;;;2.30;;
18076;SDS011;9165;45.714;11.362;2024-03-07T02:04:44;4.77;;;2.40;;
18076;SDS011;9165;45.714;11.362;2024-03-07T02:07:11;6.20;;;2.17;;
18076;SDS011;9165;45.714;11.362;2024-03-07T02:09:37;3.97;;;1.93;;
18076;SDS011;9165;45.714;11.362;2024-03-07T02:12:05;3.83;;;2.43;;
18076;SDS011;9165;45.714;11.362;2024-03-07T02:14:31;2.47;;;2.20;;
18076;SDS011;9165;45.714;11.362;2024-03-07T02:16:58;12.10;;;3.17;;
18076;SDS011;9165;45.714;11.362;2024-03-07T02:19:26;5.10;;;2.23;;
18076;SDS011;9165;45.714;11.362;2024-03-07T02:21:54;5.90;;;2.20;;
18076;SDS011;9165;45.714;11.362;2024-03-07T02:24:20;4.47;;;2.73;;
18076;SDS011;9165;45.714;11.362;2024-03-07T02:26:47;7.13;;;2.90;;
18076;SDS011;9165;45.714;11.362;2024-03-07T02:29:14;12.97;;;3.13;;
18076;SDS011;9165;45.714;11.362;2024-03-07T02:31:40;4.80;;;3.00;;
18076;SDS011;9165;45.714;11.362;2024-03-07T02:34:07;8.67;;;3.30;;
18076;SDS011;9165;45.714;11.362;2024-03-07T02:36:33;7.20;;;2.63;;
18076;SDS011;9165;45.714;11.362;2024-03-07T02:39:01;5.67;;;2.90;;
18076;SDS011;9165;45.714;11.362;2024-03-07T02:41:28;4.00;;;2.40;;
18076;SDS011;9165;45.714;11.362;2024-03-07T02:43:54;4.37;;;2.50;;
18076;SDS011;9165;45.714;11.362;2024-03-07T02:46:21;5.67;;;3.40;;
18076;SDS011;9165;45.714;11.362;2024-03-07T02:48:47;5.67;;;3.00;;
18076;SDS011;9165;45.714;11.362;2024-03-07T02:51:14;5.63;;;3.27;;
18076;SDS011;9165;45.714;11.362;2024-03-07T02:53:40;8.43;;;3.37;;
18076;SDS011;9165;45.714;11.362;2024-03-07T02:56:09;4.93;;;2.80;;
18076;SDS011;9165;45.714;11.362;2024-03-07T02:58:36;5.07;;;2.50;;
18076;SDS011;9165;45.714;11.362;2024-03-07T03:01:03;9.73;;;2.93;;
18076;SDS011;9165;45.714;11.362;2024-03-07T03:03:29;8.10;;;3.60;;
18076;SDS011;9165;45.714;11.362;2024-03-07T03:05:57;4.43;;;3.10;;
18076;SDS011;9165;45.714;11.362;2024-03-07T03:08:24;5.43;;;3.17;;
18076;SDS011;9165;45.714;11.362;2024-03-07T03:10:51;9.37;;;3.07;;
18076;SDS011;9165;45.714;11.362;2024-03-07T03:13:19;5.23;;;3.23;;
18076;SDS011;9165;45.714;11.362;2024-03-07T03:15:46;4.03;;;2.60;;
18076;SDS011;9165;45.714;11.362;2024-03-07T03:18:13;8.13;;;3.57;;
18076;SDS011;9165;45.714;11.362;2024-03-07T03:20:39;7.27;;;3.73;;
18076;SDS011;9165;45.714;11.362;2024-03-07T03:23:08;5.53;;;3.40;;
18076;SDS011;9165;45.714;11.362;2024-03-07T03:25:38;7.00;;;4.03;;
18076;SDS011;9165;45.714;11.362;2024-03-07T03:28:05;6.37;;;3.73;;
18076;SDS011;9165;45.714;11.362;2024-03-07T03:30:36;5.60;;;3.50;;
18076;SDS011;9165;45.714;11.362;2024-03-07T03:33:03;5.17;;;3.57;;
18076;SDS011;9165;45.714;11.362;2024-03-07T03:35:30;6.57;;;3.50;;
18076;SDS011;9165;45.714;11.362;2024-03-07T03:37:57;7.17;;;3.07;;
18076;SDS011;9165;45.714;11.362;2024-03-07T03:40:24;4.97;;;3.13;;
18076;SDS011;9165;45.714;11.362;2024-03-07T03:42:50;4.83;;;2.97;;
18076;SDS011;9165;45.714;11.362;2024-03-07T03:45:16;5.67;;;2.83;;
18076;SDS011;9165;45.714;11.362;2024-03-07T03:47:45;4.97;;;2.80;;
18076;SDS011;9165;45.714;11.362;2024-03-07T03:50:11;4.50;;;3.00;;
18076;SDS011;9165;45.714;11.362;2024-03-07T03:52:39;7.67;;;3.43;;
18076;SDS011;9165;45.714;11.362;2024-03-07T03:55:06;8.53;;;3.60;;
18076;SDS011;9165;45.714;11.362;2024-03-07T03:57:34;6.03;;;3.10;;
18076;SDS011;9165;45.714;11.362;2024-03-07T04:00:01;6.10;;;3.50;;
18076;SDS011;9165;45.714;11.362;2024-03-07T04:02:33;7.23;;;3.03;;
18076;SDS011;9165;45.714;11.362;2024-03-07T04:05:01;5.17;;;2.93;;
18076;SDS011;9165;45.714;11.362;2024-03-07T04:07:28;3.93;;;2.90;;
18076;SDS011;9165;45.714;11.362;2024-03-07T04:09:56;4.37;;;3.27;;
18076;SDS011;9165;45.714;11.362;2024-03-07T04:12:23;5.23;;;3.10;;
18076;SDS011;9165;45.714;11.362;2024-03-07T04:14:51;8.93;;;3.83;;
18076;SDS011;9165;45.714;11.362;2024-03-07T04:17:17;5.17;;;3.10;;
18076;SDS011;9165;45.714;11.362;2024-03-07T04:19:46;6.40;;;3.37;;
18076;SDS011;9165;45.714;11.362;2024-03-07T04:22:14;6.20;;;3.50;;
18076;SDS011;9165;45.714;11.362;2024-03-07T04:24:41;8.77;;;4.10;;
18076;SDS011;9165;45.714;11.362;2024-03-07T04:27:07;6.50;;;3.73;;
18076;SDS011;9165;45.714;11.362;2024-03-07T04:29:34;7.27;;;3.50;;
18076;SDS011;9165;45.714;11.362;2024-03-07T04:32:01;8.30;;;3.33;;
18076;SDS011;9165;45.714;11.362;2024-03-07T04:34:28;4.17;;;3.10;;
18076;SDS011;9165;45.714;11.362;2024-03-07T04:36:55;7.40;;;4.23;;
18076;SDS011;9165;45.714;11.362;2024-03-07T04:39:25;4.53;;;3.27;;
18076;SDS011;9165;45.714;11.362;2024-03-07T04:41:57;7.20;;;3.07;;
18076;SDS011;9165;45.714;11.362;2024-03-07T04:44:25;5.20;;;3.63;;
18076;SDS011;9165;45.714;11.362;2024-03-07T04:46:52;6.90;;;3.80;;
18076;SDS011;9165;45.714;11.362;2024-03-07T04:49:21;4.67;;;3.53;;
18076;SDS011;9165;45.714;11.362;2024-03-07T04:51:48;7.17;;;3.57;;
18076;SDS011;9165;45.714;11.362;2024-03-07T04:54:15;5.03;;;3.80;;
18076;SDS011;9165;45.714;11.362;2024-03-07T04:56:43;9.10;;;3.97;;
18076;SDS011;9165;45.714;11.362;2024-03-07T04:59:09;7.10;;;4.27;;
18076;SDS011;9165;45.714;11.362;2024-03-07T05:01:36;5.87;;;4.03;;
18076;SDS011;9165;45.714;11.362;2024-03-07T05:04:03;5.23;;;3.97;;
18076;SDS011;9165;45.714;11.362;2024-03-07T05:06:30;10.07;;;4.87;;
18076;SDS011;9165;45.714;11.362;2024-03-07T05:08:58;7.93;;;5.20;;
18076;SDS011;9165;45.714;11.362;2024-03-07T05:11:25;5.63;;;4.03;;
18076;SDS011;9165;45.714;11.362;2024-03-07T05:13:53;8.00;;;4.60;;
18076;SDS011;9165;45.714;11.362;2024-03-07T05:16:19;7.27;;;4.10;;
18076;SDS011;9165;45.714;11.362;2024-03-07T05:18:47;5.93;;;4.17;;
18076;SDS011;9165;45.714;11.362;2024-03-07T05:21:15;6.00;;;4.23;;
18076;SDS011;9165;45.714;11.362;2024-03-07T05:24:03;5.60;;;3.70;;
18076;SDS011;9165;45.714;11.362;2024-03-07T05:26:29;6.80;;;4.33;;
18076;SDS011;9165;45.714;11.362;2024-03-07T05:29:00;9.67;;;7.30;;
18076;SDS011;9165;45.714;11.362;2024-03-07T05:31:30;10.53;;;4.73;;
18076;SDS011;9165;45.714;11.362;2024-03-07T05:33:58;5.40;;;3.57;;
18076;SDS011;9165;45.714;11.362;2024-03-07T05:36:25;6.97;;;4.20;;
18076;SDS011;9165;45.714;11.362;2024-03-07T05:38:52;9.50;;;4.30;;
18076;SDS011;9165;45.714;11.362;2024-03-07T05:41:18;7.57;;;3.73;;
18076;SDS011;9165;45.714;11.362;2024-03-07T05:43:44;7.50;;;5.17;;
18076;SDS011;9165;45.714;11.362;2024-03-07T05:46:12;9.40;;;4.57;;
18076;SDS011;9165;45.714;11.362;2024-03-07T05:48:39;11.13;;;4.73;;
18076;SDS011;9165;45.714;11.362;2024-03-07T05:51:05;8.40;;;4.37;;
18076;SDS011;9165;45.714;11.362;2024-03-07T05:53:32;5.70;;;4.00;;
18076;SDS011;9165;45.714;11.362;2024-03-07T05:56:00;7.97;;;4.93;;
18076;SDS011;9165;45.714;11.362;2024-03-07T05:58:27;8.60;;;4.63;;
18076;SDS011;9165;45.714;11.362;2024-03-07T06:00:53;6.73;;;4.13;;
18076;SDS011;9165;45.714;11.362;2024-03-07T06:03:21;6.00;;;4.53;;
18076;SDS011;9165;45.714;11.362;2024-03-07T06:05:49;7.50;;;4.80;;
18076;SDS011;9165;45.714;11.362;2024-03-07T06:08:16;7.47;;;5.03;;
18076;SDS011;9165;45.714;11.362;2024-03-07T06:10:44;8.40;;;5.00;;
18076;SDS011;9165;45.714;11.362;2024-03-07T06:13:10;9.33;;;6.07;;
18076;SDS011;9165;45.714;11.362;2024-03-07T06:15:37;12.23;;;5.57;;
18076;SDS011;9165;45.714;11.362;2024-03-07T06:18:04;11.17;;;5.33;;
18076;SDS011;9165;45.714;11.362;2024-03-07T06:20:32;10.33;;;5.33;;
18076;SDS011;9165;45.714;11.362;2024-03-07T06:23:00;10.47;;;5.90;;
18076;SDS011;9165;45.714;11.362;2024-03-07T06:25:29;5.30;;;4.57;;
18076;SDS011;9165;45.714;11.362;2024-03-07T06:28:02;7.10;;;4.20;;
18076;SDS011;9165;45.714;11.362;2024-03-07T06:30:34;6.17;;;4.80;;
18076;SDS011;9165;45.714;11.362;2024-03-07T06:33:02;9.30;;;4.77;;
18076;SDS011;9165;45.714;11.362;2024-03-07T06:35:29;7.37;;;4.47;;
18076;SDS011;9165;45.714;11.362;2024-03-07T06:37:57;6.87;;;4.77;;
18076;SDS011;9165;45.714;11.362;2024-03-07T06:40:23;8.77;;;4.20;;
18076;SDS011;9165;45.714;11.362;2024-03-07T06:42:50;8.83;;;4.33;;
18076;SDS011;9165;45.714;11.362;2024-03-07T06:45:17;8.00;;;4.63;;
18076;SDS011;9165;45.714;11.362;2024-03-07T06:47:44;7.67;;;4.50;;
18076;SDS011;9165;45.714;11.362;2024-03-07T06:50:10;8.73;;;5.03;;
18076;SDS011;9165;45.714;11.362;2024-03-07T06:52:39;7.57;;;4.77;;
18076;SDS011;9165;45.714;11.362;2024-03-07T06:55:08;6.13;;;4.03;;
18076;SDS011;9165;45.714;11.362;2024-03-07T06:57:34;7.63;;;4.50;;
18076;SDS011;9165;45.714;11.362;2024-03-07T07:00:01;7.63;;;4.10;;
18076;SDS011;9165;45.714;11.362;2024-03-07T07:02:36;11.17;;;4.20;;
18076;SDS011;9165;45.714;11.362;2024-03-07T07:05:03;8.23;;;4.93;;
18076;SDS011;9165;45.714;11.362;2024-03-07T07:07:32;10.47;;;5.13;;
18076;SDS011;9165;45.714;11.362;2024-03-07T07:10:01;6.23;;;4.60;;
18076;SDS011;9165;45.714;11.362;2024-03-07T07:12:28;7.70;;;4.83;;
18076;SDS011;9165;45.714;11.362;2024-03-07T07:14:55;12.27;;;4.93;;
18076;SDS011;9165;45.714;11.362;2024-03-07T07:17:22;6.60;;;5.27;;
18076;SDS011;9165;45.714;11.362;2024-03-07T07:19:49;12.23;;;5.43;;
18076;SDS011;9165;45.714;11.362;2024-03-07T07:22:15;7.03;;;4.77;;
18076;SDS011;9165;45.714;11.362;2024-03-07T07:24:42;5.77;;;4.63;;
18076;SDS011;9165;45.714;11.362;2024-03-07T07:27:09;8.80;;;4.17;;
18076;SDS011;9165;45.714;11.362;2024-03-07T07:29:37;7.83;;;4.37;;
18076;SDS011;9165;45.714;11.362;2024-03-07T07:32:04;10.50;;;4.97;;
18076;SDS011;9165;45.714;11.362;2024-03-07T07:34:31;6.73;;;4.77;;
18076;SDS011;9165;45.714;11.362;2024-03-07T07:36:57;10.03;;;5.87;;
18076;SDS011;9165;45.714;11.362;2024-03-07T07:39:23;7.97;;;4.73;;
18076;SDS011;9165;45.714;11.362;2024-03-07T07:41:50;6.83;;;4.53;;
18076;SDS011;9165;45.714;11.362;2024-03-07T07:44:17;7.57;;;5.43;;
18076;SDS011;9165;45.714;11.362;2024-03-07T07:46:46;13.17;;;5.20;;
18076;SDS011;9165;45.714;11.362;2024-03-07T07:49:12;7.97;;;5.67;;
18076;SDS011;9165;45.714;11.362;2024-03-07T07:51:39;8.03;;;4.67;;
18076;SDS011;9165;45.714;11.362;2024-03-07T07:54:05;10.07;;;4.97;;
18076;SDS011;9165;45.714;11.362;2024-03-07T07:56:34;8.83;;;5.17;;
18076;SDS011;9165;45.714;11.362;2024-03-07T07:59:01;7.27;;;5.17;;
18076;SDS011;9165;45.714;11.362;2024-03-07T08:01:28;7.90;;;4.80;;
18076;SDS011;9165;45.714;11.362;2024-03-07T08:03:56;9.23;;;5.67;;
18076;SDS011;9165;45.714;11.362;2024-03-07T08:06:24;7.57;;;4.83;;
18076;SDS011;9165;45.714;11.362;2024-03-07T08:08:50;9.30;;;5.37;;
18076;SDS011;9165;45.714;11.362;2024-03-07T08:11:16;13.33;;;6.00;;
18076;SDS011;9165;45.714;11.362;2024-03-07T08:13:43;13.73;;;5.03;;
18076;SDS011;9165;45.714;11.362;2024-03-07T08:16:12;10.67;;;5.40;;
18076;SDS011;9165;45.714;11.362;2024-03-07T08:18:39;9.63;;;6.17;;
18076;SDS011;9165;45.714;11.362;2024-03-07T08:21:07;9.53;;;5.03;;
18076;SDS011;9165;45.714;11.362;2024-03-07T08:57:46;7.93;;;4.50;;
18076;SDS011;9165;45.714;11.362;2024-03-07T09:00:14;5.70;;;4.10;;
18076;SDS011;9165;45.714;11.362;2024-03-07T09:02:47;7.47;;;3.83;;
18076;SDS011;9165;45.714;11.362;2024-03-07T09:05:15;7.90;;;4.63;;
18076;SDS011;9165;45.714;11.362;2024-03-07T09:07:42;6.40;;;4.23;;
18076;SDS011;9165;45.714;11.362;2024-03-07T09:10:10;9.60;;;3.93;;
18076;SDS011;9165;45.714;11.362;2024-03-07T09:12:36;5.37;;;3.60;;
18076;SDS011;9165;45.714;11.362;2024-03-07T09:15:05;5.20;;;4.03;;
18076;SDS011;9165;45.714;11.362;2024-03-07T09:17:32;7.30;;;4.27;;
18076;SDS011;9165;45.714;11.362;2024-03-07T09:19:59;61.03;;;25.83;;
18076;SDS011;9165;45.714;11.362;2024-03-07T09:22:25;10.63;;;5.33;;
18076;SDS011;9165;45.714;11.362;2024-03-07T09:24:54;6.27;;;5.00;;
18076;SDS011;9165;45.714;11.362;2024-03-07T09:27:21;6.43;;;4.33;;
18076;SDS011;9165;45.714;11.362;2024-03-07T09:29:48;6.80;;;4.80;;
18076;SDS011;9165;45.714;11.362;2024-03-07T09:32:16;6.33;;;5.07;;
18076;SDS011;9165;45.714;11.362;2024-03-07T09:34:43;7.47;;;4.50;;
18076;SDS011;9165;45.714;11.362;2024-03-07T09:37:09;7.30;;;4.80;;
18076;SDS011;9165;45.714;11.362;2024-03-07T09:39:36;7.63;;;4.37;;
18076;SDS011;9165;45.714;11.362;2024-03-07T09:42:02;9.30;;;4.50;;
18076;SDS011;9165;45.714;11.362;2024-03-07T09:44:29;8.47;;;4.23;;
18076;SDS011;9165;45.714;11.362;2024-03-07T09:46:58;6.43;;;4.00;;
18076;SDS011;9165;45.714;11.362;2024-03-07T09:49:28;7.87;;;3.97;;
18076;SDS011;9165;45.714;11.362;2024-03-07T09:51:55;10.47;;;4.73;;
18076;SDS011;9165;45.714;11.362;2024-03-07T09:54:22;9.53;;;4.90;;
18076;SDS011;9165;45.714;11.362;2024-03-07T09:56:50;6.87;;;4.43;;
18076;SDS011;9165;45.714;11.362;2024-03-07T09:59:18;9.20;;;4.27;;
18076;SDS011;9165;45.714;11.362;2024-03-07T10:01:46;10.37;;;4.37;;
18076;SDS011;9165;45.714;11.362;2024-03-07T10:04:13;8.93;;;4.03;;
18076;SDS011;9165;45.714;11.362;2024-03-07T10:06:43;10.43;;;4.70;;
18076;SDS011;9165;45.714;11.362;2024-03-07T10:09:11;11.03;;;4.90;;
18076;SDS011;9165;45.714;11.362;2024-03-07T10:11:39;11.80;;;5.07;;
18076;SDS011;9165;45.714;11.362;2024-03-07T10:14:06;11.10;;;5.30;;
18076;SDS011;9165;45.714;11.362;2024-03-07T10:16:33;10.63;;;5.53;;
18076;SDS011;9165;45.714;11.362;2024-03-07T10:18:59;7.63;;;4.77;;
18076;SDS011;9165;45.714;11.362;2024-03-07T10:21:30;6.63;;;4.67;;
18076;SDS011;9165;45.714;11.362;2024-03-07T10:26:46;7.07;;;4.83;;
18076;SDS011;9165;45.714;11.362;2024-03-07T10:29:13;9.37;;;5.23;;
18076;SDS011;9165;45.714;11.362;2024-03-07T10:31:39;7.60;;;4.50;;
18076;SDS011;9165;45.714;11.362;2024-03-07T10:34:06;5.97;;;4.63;;
18076;SDS011;9165;45.714;11.362;2024-03-07T10:36:33;8.17;;;5.07;;
18076;SDS011;9165;45.714;11.362;2024-03-07T10:39:00;8.07;;;4.77;;
18076;SDS011;9165;45.714;11.362;2024-03-07T10:41:29;12.00;;;5.80;;
18076;SDS011;9165;45.714;11.362;2024-03-07T10:44:03;13.83;;;5.67;;
18076;SDS011;9165;45.714;11.362;2024-03-07T10:46:30;10.50;;;6.30;;
18076;SDS011;9165;45.714;11.362;2024-03-07T10:48:57;9.07;;;6.07;;
18076;SDS011;9165;45.714;11.362;2024-03-07T10:51:26;12.60;;;7.23;;
18076;SDS011;9165;45.714;11.362;2024-03-07T10:53:57;11.77;;;7.67;;
18076;SDS011;9165;45.714;11.362;2024-03-07T10:56:29;9.67;;;7.03;;
18076;SDS011;9165;45.714;11.362;2024-03-07T10:58:58;14.83;;;7.40;;
18076;SDS011;9165;45.714;11.362;2024-03-07T11:01:31;11.83;;;7.67;;
18076;SDS011;9165;45.714;11.362;2024-03-07T11:03:59;15.63;;;8.63;;
18076;SDS011;9165;45.714;11.362;2024-03-07T11:06:25;12.20;;;8.07;;
18076;SDS011;9165;45.714;11.362;2024-03-07T11:08:52;12.73;;;8.13;;
18076;SDS011;9165;45.714;11.362;2024-03-07T11:11:19;11.90;;;8.40;;
18076;SDS011;9165;45.714;11.362;2024-03-07T11:13:48;15.83;;;8.80;;
18076;SDS011;9165;45.714;11.362;2024-03-07T11:16:15;14.47;;;9.23;;
18076;SDS011;9165;45.714;11.362;2024-03-07T11:18:44;14.20;;;8.80;;
18076;SDS011;9165;45.714;11.362;2024-03-07T11:21:40;14.57;;;8.57;;
18076;SDS011;9165;45.714;11.362;2024-03-07T11:24:06;16.30;;;8.90;;
18076;SDS011;9165;45.714;11.362;2024-03-07T11:26:34;15.73;;;9.17;;
18076;SDS011;9165;45.714;11.362;2024-03-07T11:29:00;12.67;;;9.17;;
18076;SDS011;9165;45.714;11.362;2024-03-07T11:31:29;13.40;;;9.33;;
18076;SDS011;9165;45.714;11.362;2024-03-07T11:34:16;18.43;;;10.07;;
18076;SDS011;9165;45.714;11.362;2024-03-07T11:36:44;16.50;;;8.30;;
18076;SDS011;9165;45.714;11.362;2024-03-07T11:41:53;12.07;;;8.53;;
18076;SDS011;9165;45.714;11.362;2024-03-07T11:44:20;14.93;;;9.13;;
18076;SDS011;9165;45.714;11.362;2024-03-07T11:46:46;16.83;;;10.03;;
18076;SDS011;9165;45.714;11.362;2024-03-07T11:49:13;14.67;;;9.30;;
18076;SDS011;9165;45.714;11.362;2024-03-07T11:51:42;18.53;;;9.93;;
18076;SDS011;9165;45.714;11.362;2024-03-07T11:54:13;18.30;;;9.87;;
18076;SDS011;9165;45.714;11.362;2024-03-07T11:56:39;15.13;;;9.77;;
18076;SDS011;9165;45.714;11.362;2024-03-07T11:59:06;16.60;;;11.13;;
18076;SDS011;9165;45.714;11.362;2024-03-07T12:01:32;16.83;;;10.23;;
18076;SDS011;9165;45.714;11.362;2024-03-07T12:04:01;16.43;;;10.50;;
18076;SDS011;9165;45.714;11.362;2024-03-07T12:06:30;16.23;;;10.43;;
18076;SDS011;9165;45.714;11.362;2024-03-07T12:09:04;16.37;;;10.43;;
18076;SDS011;9165;45.714;11.362;2024-03-07T12:11:31;15.90;;;10.70;;
18076;SDS011;9165;45.714;11.362;2024-03-07T12:14:01;24.10;;;15.13;;
18076;SDS011;9165;45.714;11.362;2024-03-07T12:16:28;18.27;;;10.77;;
18076;SDS011;9165;45.714;11.362;2024-03-07T12:18:55;14.03;;;10.33;;
18076;SDS011;9165;45.714;11.362;2024-03-07T12:21:22;16.47;;;10.53;;
18076;SDS011;9165;45.714;11.362;2024-03-07T12:23:52;20.23;;;11.27;;
18076;SDS011;9165;45.714;11.362;2024-03-07T12:26:21;16.43;;;10.73;;
18076;SDS011;9165;45.714;11.362;2024-03-07T12:28:50;17.40;;;11.03;;
18076;SDS011;9165;45.714;11.362;2024-03-07T12:31:18;20.47;;;9.70;;
18076;SDS011;9165;45.714;11.362;2024-03-07T12:33:49;18.13;;;10.93;;
18076;SDS011;9165;45.714;11.362;2024-03-07T12:36:16;19.70;;;11.83;;
18076;SDS011;9165;45.714;11.362;2024-03-07T12:38:43;18.90;;;11.43;;
18076;SDS011;9165;45.714;11.362;2024-03-07T12:41:10;16.70;;;11.03;;
18076;SDS011;9165;45.714;11.362;2024-03-07T12:43:41;14.83;;;10.83;;
18076;SDS011;9165;45.714;11.362;2024-03-07T12:46:10;18.23;;;9.93;;
18076;SDS011;9165;45.714;11.362;2024-03-07T12:48:36;19.33;;;10.60;;
18076;SDS011;9165;45.714;11.362;2024-03-07T12:51:04;15.73;;;9.93;;
18076;SDS011;9165;45.714;11.362;2024-03-07T12:53:30;14.63;;;10.07;;
18076;SDS011;9165;45.714;11.362;2024-03-07T12:56:00;20.00;;;11.13;;
18076;SDS011;9165;45.714;11.362;2024-03-07T12:58:28;21.73;;;11.90;;
18076;SDS011;9165;45.714;11.362;2024-03-07T13:00:57;16.23;;;11.33;;
18076;SDS011;9165;45.714;11.362;2024-03-07T13:03:23;18.47;;;10.47;;
18076;SDS011;9165;45.714;11.362;2024-03-07T13:05:55;16.10;;;10.80;;
18076;SDS011;9165;45.714;11.362;2024-03-07T13:08:21;19.53;;;10.53;;
18076;SDS011;9165;45.714;11.362;2024-03-07T13:10:51;16.80;;;10.60;;
18076;SDS011;9165;45.714;11.362;2024-03-07T13:13:20;16.80;;;10.30;;
18076;SDS011;9165;45.714;11.362;2024-03-07T13:15:47;17.20;;;11.20;;
18076;SDS011;9165;45.714;11.362;2024-03-07T13:18:18;20.30;;;11.23;;
18076;SDS011;9165;45.714;11.362;2024-03-07T13:20:44;19.87;;;10.27;;
18076;SDS011;9165;45.714;11.362;2024-03-07T13:23:11;20.50;;;11.33;;
18076;SDS011;9165;45.714;11.362;2024-03-07T13:25:37;18.10;;;10.30;;
18076;SDS011;9165;45.714;11.362;2024-03-07T13:28:04;17.57;;;10.77;;
18076;SDS011;9165;45.714;11.362;2024-03-07T13:30:33;18.00;;;10.53;;
18076;SDS011;9165;45.714;11.362;2024-03-07T13:33:01;19.43;;;9.80;;
18076;SDS011;9165;45.714;11.362;2024-03-07T13:35:29;16.63;;;9.97;;
18076;SDS011;9165;45.714;11.362;2024-03-07T13:37:56;20.63;;;10.33;;
18076;SDS011;9165;45.714;11.362;2024-03-07T13:40:22;16.10;;;10.63;;
18076;SDS011;9165;45.714;11.362;2024-03-07T13:42:52;17.30;;;9.20;;
18076;SDS011;9165;45.714;11.362;2024-03-07T13:45:20;16.80;;;10.43;;
18076;SDS011;9165;45.714;11.362;2024-03-07T13:47:47;16.70;;;10.00;;
18076;SDS011;9165;45.714;11.362;2024-03-07T13:50:14;18.60;;;9.83;;
18076;SDS011;9165;45.714;11.362;2024-03-07T13:52:42;15.17;;;9.60;;
18076;SDS011;9165;45.714;11.362;2024-03-07T13:55:29;13.30;;;9.30;;
18076;SDS011;9165;45.714;11.362;2024-03-07T13:57:56;16.17;;;9.80;;
18076;SDS011;9165;45.714;11.362;2024-03-07T14:00:30;12.00;;;7.73;;
18076;SDS011;9165;45.714;11.362;2024-03-07T14:05:55;18.73;;;8.83;;
18076;SDS011;9165;45.714;11.362;2024-03-07T14:14:05;15.97;;;8.40;;
18076;SDS011;9165;45.714;11.362;2024-03-07T14:16:40;14.37;;;8.57;;
18076;SDS011;9165;45.714;11.362;2024-03-07T14:22:01;15.40;;;9.30;;
18076;SDS011;9165;45.714;11.362;2024-03-07T14:24:40;16.37;;;9.53;;
18076;SDS011;9165;45.714;11.362;2024-03-07T14:27:18;13.67;;;8.87;;
18076;SDS011;9165;45.714;11.362;2024-03-07T14:29:50;18.40;;;9.43;;
18076;SDS011;9165;45.714;11.362;2024-03-07T14:32:21;20.13;;;10.10;;
18076;SDS011;9165;45.714;11.362;2024-03-07T14:34:53;13.57;;;8.60;;
18076;SDS011;9165;45.714;11.362;2024-03-07T14:37:23;14.77;;;9.17;;
18076;SDS011;9165;45.714;11.362;2024-03-07T14:39:50;19.50;;;8.77;;
18076;SDS011;9165;45.714;11.362;2024-03-07T14:42:18;13.77;;;9.03;;
18076;SDS011;9165;45.714;11.362;2024-03-07T14:44:45;15.20;;;9.57;;
18076;SDS011;9165;45.714;11.362;2024-03-07T14:47:16;13.57;;;8.73;;
18076;SDS011;9165;45.714;11.362;2024-03-07T14:49:45;13.27;;;8.50;;
18076;SDS011;9165;45.714;11.362;2024-03-07T14:52:12;15.30;;;8.80;;
18076;SDS011;9165;45.714;11.362;2024-03-07T14:54:38;16.63;;;8.97;;
18076;SDS011;9165;45.714;11.362;2024-03-07T14:57:05;16.97;;;9.33;;
18076;SDS011;9165;45.714;11.362;2024-03-07T14:59:35;14.97;;;9.53;;
18076;SDS011;9165;45.714;11.362;2024-03-07T15:02:02;14.93;;;8.80;;
18076;SDS011;9165;45.714;11.362;2024-03-07T15:04:31;12.43;;;9.40;;
18076;SDS011;9165;45.714;11.362;2024-03-07T15:06:59;16.33;;;10.37;;
18076;SDS011;9165;45.714;11.362;2024-03-07T15:09:27;17.10;;;9.97;;
18076;SDS011;9165;45.714;11.362;2024-03-07T15:11:55;17.70;;;9.90;;
18076;SDS011;9165;45.714;11.362;2024-03-07T15:14:22;15.10;;;8.57;;
18076;SDS011;9165;45.714;11.362;2024-03-07T15:16:48;13.60;;;9.63;;
18076;SDS011;9165;45.714;11.362;2024-03-07T15:19:15;16.83;;;10.40;;
18076;SDS011;9165;45.714;11.362;2024-03-07T15:21:43;16.93;;;10.00;;
18076;SDS011;9165;45.714;11.362;2024-03-07T15:24:11;14.97;;;9.17;;
18076;SDS011;9165;45.714;11.362;2024-03-07T15:26:38;16.23;;;10.20;;
18076;SDS011;9165;45.714;11.362;2024-03-07T15:29:04;15.00;;;9.33;;
18076;SDS011;9165;45.714;11.362;2024-03-07T15:31:32;13.87;;;9.37;;
18076;SDS011;9165;45.714;11.362;2024-03-07T15:33:59;16.17;;;9.67;;